Time;durP1;ratioP1;P1;durP2;ratioP2;P2;SDS_P1;SDS_P2;PMS_P1;PMS_P2;Temp;Humidity;BMP_temperature;BMP_pressure;BME280_temperature;BME280_humidity;BME280_pressure;Samples;Min_cycle;Max_cycle;Signal;HPM_P1;HPM_P2
2022/11/06 00:00:17;;;;;;;16.98;9.05;;;;;;;;;;5021686;28;20121;-71
2022/11/06 00:02:43;;;;;;;12.75;8.15;;;;;;;;;;5022482;28;20100;-71
2022/11/06 00:07:53;;;;;;;14.27;8.68;;;;;;;;;;5022021;28;20100;-71
2022/11/06 00:10:19;;;;;;;13.27;8.43;;;;;;;;;;5021712;28;20049;-71
2022/11/06 00:12:45;;;;;;;14.80;8.00;;;;;;;;;;5021960;28;20046;-71
2022/11/06 00:15:10;;;;;;;16.98;8.23;;;;;;;;;;5021437;28;20414;-70
2022/11/06 00:17:36;;;;;;;13.02;8.35;;;;;;;;;;5021664;28;20406;-71
2022/11/06 00:20:02;;;;;;;14.18;8.10;;;;;;;;;;5022012;28;20157;-71
2022/11/06 00:22:31;;;;;;;13.35;8.10;;;;;;;;;;5021006;28;20064;-71
2022/11/06 00:24:57;;;;;;;12.30;8.30;;;;;;;;;;5021551;28;20409;-71
2022/11/06 00:27:22;;;;;;;16.80;7.95;;;;;;;;;;5020890;28;20548;-71
2022/11/06 00:29:48;;;;;;;13.25;7.43;;;;;;;;;;5036788;28;20041;-71
2022/11/06 00:32:13;;;;;;;11.70;7.57;;;;;;;;;;5021558;28;20030;-71
2022/11/06 00:34:38;;;;;;;10.80;7.55;;;;;;;;;;5021002;28;20061;-71
2022/11/06 00:37:04;;;;;;;13.80;7.25;;;;;;;;;;5020517;28;20525;-71
2022/11/06 00:39:29;;;;;;;11.07;7.13;;;;;;;;;;5021320;28;20045;-71
2022/11/06 00:41:55;;;;;;;11.13;7.97;;;;;;;;;;5021529;28;20038;-71
2022/11/06 00:44:20;;;;;;;13.23;7.90;;;;;;;;;;5020610;28;20037;-71
2022/11/06 00:46:46;;;;;;;13.60;8.05;;;;;;;;;;5021418;28;20615;-71
2022/11/06 00:49:11;;;;;;;13.52;8.32;;;;;;;;;;5020228;28;20469;-71
2022/11/06 00:51:39;;;;;;;13.18;7.38;;;;;;;;;;5020776;28;20052;-71
2022/11/06 00:54:08;;;;;;;12.82;7.93;;;;;;;;;;5021318;28;20045;-70
2022/11/06 00:56:34;;;;;;;11.18;7.68;;;;;;;;;;5020829;28;20080;-71
2022/11/06 00:59:01;;;;;;;12.20;7.90;;;;;;;;;;5020205;28;20152;-71
2022/11/06 01:01:29;;;;;;;10.90;7.03;;;;;;;;;;5021034;28;20048;-71
2022/11/06 01:03:57;;;;;;;14.38;8.05;;;;;;;;;;5021112;28;20128;-71
2022/11/06 01:06:27;;;;;;;12.98;8.32;;;;;;;;;;5020658;28;20053;-71
2022/11/06 01:08:53;;;;;;;12.65;7.45;;;;;;;;;;5021084;28;20057;-71
2022/11/06 01:11:24;;;;;;;11.40;7.63;;;;;;;;;;5019981;28;20045;-71
2022/11/06 01:13:52;;;;;;;12.20;7.70;;;;;;;;;;5018926;28;20045;-71
2022/11/06 01:16:19;;;;;;;11.68;6.90;;;;;;;;;;5016897;28;20592;-71
2022/11/06 01:18:45;;;;;;;11.98;7.82;;;;;;;;;;5019472;28;20041;-71
2022/11/06 01:21:14;;;;;;;13.52;7.78;;;;;;;;;;5018013;28;20103;-71
2022/11/06 01:23:41;;;;;;;13.27;8.15;;;;;;;;;;5018614;28;20053;-71
2022/11/06 01:26:08;;;;;;;15.98;9.43;;;;;;;;;;5019826;28;20099;-70
2022/11/06 01:28:34;;;;;;;17.65;8.38;;;;;;;;;;5020048;28;20490;-71
2022/11/06 01:31:07;;;;;;;40.25;8.98;;;;;;;;;;5020852;28;20480;-70
2022/11/06 01:33:33;;;;;;;33.38;6.38;;;;;;;;;;5020314;28;20037;-71
2022/11/06 01:35:59;;;;;;;29.35;7.03;;;;;;;;;;5019594;28;20045;-71
2022/11/06 01:38:26;;;;;;;205.48;10.80;;;;;;;;;;5019811;28;20508;-71
2022/11/06 01:40:51;;;;;;;24.95;10.40;;;;;;;;;;5020617;28;20041;-71
2022/11/06 01:43:23;;;;;;;27.65;8.48;;;;;;;;;;5020569;28;20062;-71
2022/11/06 01:45:51;;;;;;;151.13;12.07;;;;;;;;;;5019896;28;20095;-71
2022/11/06 01:48:20;;;;;;;16.50;7.40;;;;;;;;;;5017783;28;20048;-71
2022/11/06 01:50:50;;;;;;;21.63;8.93;;;;;;;;;;5020544;28;20452;-71
2022/11/06 01:53:16;;;;;;;22.02;10.13;;;;;;;;;;5020057;28;20128;-71
2022/11/06 01:55:44;;;;;;;24.17;8.88;;;;;;;;;;5020149;28;20045;-71
2022/11/06 01:58:14;;;;;;;16.13;9.02;;;;;;;;;;5019480;28;20111;-70
2022/11/06 02:00:40;;;;;;;16.67;9.50;;;;;;;;;;5020355;28;20053;-71
2022/11/06 02:03:06;;;;;;;22.83;10.43;;;;;;;;;;5016516;28;20072;-71
2022/11/06 02:05:32;;;;;;;29.60;10.55;;;;;;;;;;5019983;28;20046;-71
2022/11/06 02:07:59;;;;;;;184.10;15.45;;;;;;;;;;5021274;28;20052;-70
2022/11/06 02:10:26;;;;;;;28.35;9.75;;;;;;;;;;5019111;28;20048;-71
2022/11/06 02:13:26;;;;;;;20.15;9.77;;;;;;;;;;5020463;28;20060;-71
2022/11/06 02:16:02;;;;;;;21.55;8.73;;;;;;;;;;5020137;28;20056;-71
2022/11/06 02:18:46;;;;;;;65.30;10.00;;;;;;;;;;5019532;28;20041;-71
2022/11/06 02:21:49;;;;;;;33.63;11.45;;;;;;;;;;5018590;28;20099;-71
2022/11/06 02:24:38;;;;;;;44.17;12.30;;;;;;;;;;5019454;28;20462;-72
2022/11/06 02:27:03;;;;;;;20.67;9.63;;;;;;;;;;5020132;28;20127;-71
2022/11/06 02:29:34;;;;;;;19.77;8.27;;;;;;;;;;5020077;28;20081;-71
2022/11/06 02:32:05;;;;;;;25.00;8.75;;;;;;;;;;5018823;28;20048;-71
2022/11/06 02:34:34;;;;;;;160.20;11.85;;;;;;;;;;5018897;28;20148;-71
2022/11/06 02:37:03;;;;;;;126.88;13.00;;;;;;;;;;5019760;28;20037;-71
2022/11/06 02:39:32;;;;;;;17.40;8.10;;;;;;;;;;5019763;28;20519;-71
2022/11/06 02:41:59;;;;;;;18.50;7.80;;;;;;;;;;5018588;28;20049;-71
2022/11/06 02:44:28;;;;;;;36.70;8.15;;;;;;;;;;5019011;28;20048;-71
2022/11/06 02:46:57;;;;;;;13.98;8.20;;;;;;;;;;5019604;28;20060;-71
2022/11/06 02:49:25;;;;;;;23.65;8.00;;;;;;;;;;5019740;28;20072;-71
2022/11/06 02:52:02;;;;;;;25.23;9.07;;;;;;;;;;5019598;28;20148;-71
2022/11/06 02:54:33;;;;;;;14.45;8.27;;;;;;;;;;5018416;28;20052;-71
2022/11/06 02:57:04;;;;;;;17.58;7.68;;;;;;;;;;5019651;28;20167;-71
2022/11/06 03:00:01;;;;;;;24.38;8.65;;;;;;;;;;5017281;28;20065;-71
2022/11/06 03:02:36;;;;;;;14.55;8.45;;;;;;;;;;5018305;28;20049;-71
2022/11/06 03:05:22;;;;;;;15.43;8.27;;;;;;;;;;5018274;28;20061;-71
2022/11/06 03:08:20;;;;;;;46.67;8.77;;;;;;;;;;5019566;28;20513;-71
2022/11/06 03:10:53;;;;;;;13.65;8.13;;;;;;;;;;5016662;28;20057;-71
2022/11/06 03:13:30;;;;;;;16.77;8.35;;;;;;;;;;5019355;28;20076;-71
2022/11/06 03:16:21;;;;;;;15.95;8.85;;;;;;;;;;5020355;28;20049;-71
2022/11/06 03:19:09;;;;;;;14.05;7.57;;;;;;;;;;5008338;28;20081;-70
2022/11/06 03:22:07;;;;;;;38.67;6.05;;;;;;;;;;5023379;28;20498;-71
2022/11/06 03:24:33;;;;;;;7.38;4.68;;;;;;;;;;5022601;28;20041;-71
2022/11/06 03:27:09;;;;;;;17.27;5.63;;;;;;;;;;5021813;28;20053;-70
2022/11/06 03:29:42;;;;;;;25.83;5.50;;;;;;;;;;5023314;28;20636;-71
2022/11/06 03:32:16;;;;;;;17.35;5.10;;;;;;;;;;5022696;28;20042;-70
2022/11/06 03:34:50;;;;;;;67.35;6.97;;;;;;;;;;5022587;28;20081;-70
2022/11/06 03:37:21;;;;;;;91.70;6.43;;;;;;;;;;5022100;28;20498;-71
2022/11/06 03:39:54;;;;;;;6.00;4.60;;;;;;;;;;5022682;28;20051;-71
2022/11/06 03:42:24;;;;;;;7.53;4.45;;;;;;;;;;5021888;28;20041;-71
2022/11/06 03:44:57;;;;;;;221.90;8.68;;;;;;;;;;5022298;28;20069;-71
2022/11/06 03:47:30;;;;;;;28.38;5.63;;;;;;;;;;5021935;28;20417;-71
2022/11/06 03:50:22;;;;;;;30.25;5.38;;;;;;;;;;5022238;28;20508;-70
2022/11/06 03:52:54;;;;;;;27.48;5.88;;;;;;;;;;4997828;28;20060;-70
2022/11/06 03:55:28;;;;;;;50.50;7.07;;;;;;;;;;5022335;28;20056;-70
2022/11/06 03:58:04;;;;;;;15.40;5.95;;;;;;;;;;5022353;28;20064;-70
2022/11/06 04:00:32;;;;;;;32.72;6.28;;;;;;;;;;5020947;28;20271;-71
2022/11/06 04:03:05;;;;;;;51.38;6.22;;;;;;;;;;5019069;28;20049;-70
2022/11/06 04:05:36;;;;;;;64.72;5.72;;;;;;;;;;5021557;28;20045;-70
2022/11/06 04:16:41;;;;;;;12.05;5.10;;;;;;;;;;4960004;28;20046;-70
2022/11/06 04:19:18;;;;;;;30.30;6.10;;;;;;;;;;5010627;28;20041;-70
2022/11/06 04:22:11;;;;;;;20.33;5.90;;;;;;;;;;5021140;28;20049;-70
2022/11/06 04:27:48;;;;;;;20.98;5.38;;;;;;;;;;5020702;28;20056;-67
2022/11/06 04:30:18;;;;;;;18.48;5.22;;;;;;;;;;5021724;28;20100;-69
2022/11/06 04:33:03;;;;;;;24.67;5.18;;;;;;;;;;5020667;28;20457;-69
2022/11/06 04:35:40;;;;;;;35.72;5.80;;;;;;;;;;5021682;28;20056;-70
2022/11/06 04:38:24;;;;;;;54.83;7.00;;;;;;;;;;5022121;28;20053;-71
2022/11/06 04:41:15;;;;;;;22.45;6.00;;;;;;;;;;5003578;28;20144;-70
2022/11/06 04:43:49;;;;;;;17.38;5.88;;;;;;;;;;5010923;28;20494;-70
2022/11/06 04:46:22;;;;;;;27.33;5.80;;;;;;;;;;5021330;28;20073;-70
2022/11/06 04:48:48;;;;;;;35.00;6.18;;;;;;;;;;5021838;28;20069;-70
2022/11/06 04:51:14;;;;;;;12.88;5.43;;;;;;;;;;5021286;28;20053;-69
2022/11/06 04:53:41;;;;;;;33.78;6.93;;;;;;;;;;5020607;28;20568;-69
2022/11/06 04:56:10;;;;;;;21.60;6.32;;;;;;;;;;5021316;28;20044;-69
2022/11/06 04:58:37;;;;;;;12.50;5.55;;;;;;;;;;5021001;28;20081;-70
2022/11/06 05:01:02;;;;;;;27.40;5.85;;;;;;;;;;5019633;28;20779;-69
2022/11/06 05:03:28;;;;;;;27.15;6.07;;;;;;;;;;5019487;28;20052;-69
2022/11/06 05:05:53;;;;;;;37.97;7.00;;;;;;;;;;5020097;28;20103;-69
2022/11/06 05:08:20;;;;;;;74.22;10.40;;;;;;;;;;5020587;28;20596;-69
2022/11/06 05:10:46;;;;;;;57.78;6.75;;;;;;;;;;5019684;28;20057;-69
2022/11/06 05:13:13;;;;;;;63.08;6.18;;;;;;;;;;5021120;28;20134;-69
2022/11/06 05:15:39;;;;;;;56.03;6.22;;;;;;;;;;5019958;28;20053;-69
2022/11/06 05:18:05;;;;;;;67.55;5.78;;;;;;;;;;5020771;28;20053;-69
2022/11/06 05:20:31;;;;;;;77.15;6.53;;;;;;;;;;5020751;28;20033;-70
2022/11/06 05:22:57;;;;;;;79.82;6.30;;;;;;;;;;5020602;28;20053;-70
2022/11/06 05:25:23;;;;;;;160.18;8.15;;;;;;;;;;5021033;28;20068;-70
2022/11/06 05:27:49;;;;;;;93.13;6.93;;;;;;;;;;5020147;28;20041;-70
2022/11/06 05:30:15;;;;;;;168.90;6.65;;;;;;;;;;5020323;28;20083;-70
2022/11/06 05:32:40;;;;;;;62.60;5.15;;;;;;;;;;5020433;28;20052;-71
2022/11/06 05:35:06;;;;;;;42.45;5.07;;;;;;;;;;5020417;28;20041;-70
2022/11/06 05:37:31;;;;;;;149.85;7.22;;;;;;;;;;5019858;28;20053;-69
2022/11/06 05:39:57;;;;;;;105.88;6.75;;;;;;;;;;5020551;28;20064;-69
2022/11/06 05:42:22;;;;;;;197.20;7.07;;;;;;;;;;5019879;28;20044;-69
2022/11/06 05:44:47;;;;;;;84.85;5.07;;;;;;;;;;5020437;28;20515;-70
2022/11/06 05:47:13;;;;;;;224.68;8.55;;;;;;;;;;5020458;28;20745;-70
2022/11/06 05:49:38;;;;;;;157.23;6.63;;;;;;;;;;5019872;28;20049;-70
2022/11/06 05:52:04;;;;;;;62.35;4.85;;;;;;;;;;5020402;28;20429;-70
2022/11/06 05:54:29;;;;;;;72.25;5.30;;;;;;;;;;5019709;28;20044;-70
2022/11/06 05:56:55;;;;;;;56.75;5.63;;;;;;;;;;5020504;28;20080;-69
2022/11/06 05:59:20;;;;;;;51.30;4.93;;;;;;;;;;5019583;28;20107;-70
2022/11/06 06:01:46;;;;;;;237.80;8.82;;;;;;;;;;5020516;28;20061;-70
2022/11/06 06:04:11;;;;;;;44.53;5.07;;;;;;;;;;5020558;28;20045;-70
2022/11/06 06:06:37;;;;;;;32.40;4.80;;;;;;;;;;5019635;28;20096;-70
2022/11/06 06:09:02;;;;;;;14.10;4.50;;;;;;;;;;5019990;28;20053;-70
2022/11/06 06:11:28;;;;;;;211.23;7.70;;;;;;;;;;5019655;28;20141;-70
2022/11/06 06:13:53;;;;;;;46.00;6.47;;;;;;;;;;5019170;28;20067;-70
2022/11/06 06:16:19;;;;;;;67.20;7.88;;;;;;;;;;5016444;28;20049;-70
2022/11/06 06:18:48;;;;;;;222.50;12.18;;;;;;;;;;5019394;28;20056;-70
2022/11/06 06:21:14;;;;;;;155.30;9.98;;;;;;;;;;5014424;28;20045;-70
2022/11/06 06:23:39;;;;;;;139.45;9.95;;;;;;;;;;5013846;28;20769;-68
2022/11/06 06:26:05;;;;;;;60.08;9.25;;;;;;;;;;5015254;28;20048;-68
2022/11/06 06:28:30;;;;;;;94.13;10.27;;;;;;;;;;5016297;28;20489;-69
2022/11/06 06:30:56;;;;;;;160.25;12.20;;;;;;;;;;5018852;28;20081;-70
2022/11/06 06:33:21;;;;;;;99.07;16.88;;;;;;;;;;5018124;28;20152;-68
2022/11/06 06:35:47;;;;;;;32.35;13.73;;;;;;;;;;5018155;28;20746;-68
2022/11/06 06:38:12;;;;;;;28.63;8.95;;;;;;;;;;5018601;28;20065;-70
2022/11/06 06:40:37;;;;;;;66.70;11.25;;;;;;;;;;5017801;28;20060;-70
2022/11/06 06:43:03;;;;;;;66.38;9.23;;;;;;;;;;5018354;28;20134;-70
2022/11/06 06:45:28;;;;;;;59.78;10.35;;;;;;;;;;5015948;28;20057;-70
2022/11/06 06:47:54;;;;;;;52.10;9.85;;;;;;;;;;5034141;28;20049;-70
2022/11/06 06:50:19;;;;;;;27.08;9.65;;;;;;;;;;5019967;28;20040;-70
2022/11/06 06:52:46;;;;;;;94.25;11.07;;;;;;;;;;5021235;28;20053;-70
2022/11/06 06:55:11;;;;;;;34.22;11.38;;;;;;;;;;5022028;28;20042;-70
2022/11/06 06:57:37;;;;;;;45.65;11.77;;;;;;;;;;5022858;28;20090;-70
2022/11/06 07:00:03;;;;;;;90.50;12.32;;;;;;;;;;5022829;28;20060;-70
2022/11/06 07:02:28;;;;;;;69.35;11.30;;;;;;;;;;5021745;28;20501;-70
2022/11/06 07:04:54;;;;;;;109.65;12.20;;;;;;;;;;5019719;28;20064;-69
2022/11/06 07:07:19;;;;;;;70.72;12.75;;;;;;;;;;5015712;28;20129;-70
2022/11/06 07:09:45;;;;;;;131.18;14.45;;;;;;;;;;5020030;28;20045;-70
2022/11/06 07:12:10;;;;;;;58.47;13.75;;;;;;;;;;5019631;28;20061;-70
2022/11/06 07:14:36;;;;;;;110.07;15.40;;;;;;;;;;5019799;28;20053;-70
2022/11/06 07:17:01;;;;;;;55.10;14.20;;;;;;;;;;5019856;28;20041;-69
2022/11/06 07:19:26;;;;;;;129.38;17.17;;;;;;;;;;5019606;28;20144;-70
2022/11/06 07:21:52;;;;;;;127.57;15.68;;;;;;;;;;5020806;28;20045;-70
2022/11/06 07:24:18;;;;;;;88.45;14.95;;;;;;;;;;5018797;28;20071;-70
2022/11/06 07:26:43;;;;;;;90.38;15.98;;;;;;;;;;5020688;28;20050;-70
2022/11/06 07:29:09;;;;;;;95.40;15.57;;;;;;;;;;5019717;28;20053;-70
2022/11/06 07:31:34;;;;;;;73.03;15.48;;;;;;;;;;5020639;28;20095;-70
2022/11/06 07:33:59;;;;;;;50.92;15.68;;;;;;;;;;5020146;28;20045;-70
2022/11/06 07:36:25;;;;;;;56.60;15.23;;;;;;;;;;5017958;28;20111;-70
2022/11/06 07:38:51;;;;;;;62.58;16.10;;;;;;;;;;5018545;28;20049;-70
2022/11/06 07:41:16;;;;;;;46.75;14.23;;;;;;;;;;5019417;28;20053;-70
2022/11/06 07:43:42;;;;;;;48.35;17.33;;;;;;;;;;5019092;28;20045;-70
2022/11/06 07:46:10;;;;;;;62.25;21.08;;;;;;;;;;5019258;28;20059;-70
2022/11/06 07:48:36;;;;;;;49.85;16.52;;;;;;;;;;5020771;28;20037;-70
2022/11/06 07:51:04;;;;;;;52.95;18.35;;;;;;;;;;5020821;28;20424;-71
2022/11/06 07:53:30;;;;;;;41.90;16.15;;;;;;;;;;5020820;28;20054;-67
2022/11/06 07:55:56;;;;;;;40.78;17.15;;;;;;;;;;5015223;28;20524;-70
2022/11/06 07:58:22;;;;;;;38.40;14.88;;;;;;;;;;5016814;28;20037;-70
2022/11/06 08:00:49;;;;;;;43.97;16.63;;;;;;;;;;5018161;28;20057;-71
2022/11/06 08:03:15;;;;;;;35.25;15.00;;;;;;;;;;5018935;28;20089;-68
2022/11/06 08:05:40;;;;;;;32.83;16.02;;;;;;;;;;5018884;28;20136;-69
2022/11/06 08:08:06;;;;;;;30.45;14.70;;;;;;;;;;5019572;28;20118;-69
2022/11/06 08:10:32;;;;;;;22.75;11.82;;;;;;;;;;5018716;28;20152;-69
2022/11/06 08:13:00;;;;;;;27.10;13.07;;;;;;;;;;5018437;28;20053;-70
2022/11/06 08:15:25;;;;;;;25.05;13.38;;;;;;;;;;5017919;28;20052;-69
2022/11/06 08:17:51;;;;;;;25.27;13.05;;;;;;;;;;5016620;28;20045;-71
2022/11/06 08:20:16;;;;;;;22.42;11.40;;;;;;;;;;5014547;28;20056;-69
2022/11/06 08:22:42;;;;;;;22.13;12.77;;;;;;;;;;5015728;28;20155;-70
2022/11/06 08:25:08;;;;;;;22.90;11.77;;;;;;;;;;5018262;28;20057;-69
2022/11/06 08:27:33;;;;;;;21.50;13.00;;;;;;;;;;5018398;28;20053;-70
2022/11/06 08:29:59;;;;;;;16.85;9.57;;;;;;;;;;5019395;28;20115;-68
2022/11/06 08:32:24;;;;;;;18.55;9.50;;;;;;;;;;5017330;28;20045;-69
2022/11/06 08:34:49;;;;;;;16.52;9.63;;;;;;;;;;5018074;28;20049;-70
2022/11/06 08:37:15;;;;;;;15.75;10.05;;;;;;;;;;5018483;28;20626;-70
2022/11/06 08:39:40;;;;;;;17.75;9.70;;;;;;;;;;5017767;28;20492;-69
2022/11/06 08:42:08;;;;;;;16.73;10.55;;;;;;;;;;5016231;28;20049;-68
2022/11/06 08:44:33;;;;;;;18.52;9.68;;;;;;;;;;5016343;28;20873;-67
2022/11/06 08:46:59;;;;;;;21.13;11.45;;;;;;;;;;5016768;28;20045;-65
2022/11/06 08:49:24;;;;;;;15.95;9.82;;;;;;;;;;5015840;28;20045;-70
2022/11/06 08:51:50;;;;;;;18.52;10.52;;;;;;;;;;5016906;28;20087;-71
2022/11/06 08:54:15;;;;;;;20.40;11.07;;;;;;;;;;5016868;28;20429;-70
2022/11/06 08:56:41;;;;;;;20.48;12.68;;;;;;;;;;5014982;28;20060;-70
2022/11/06 08:59:06;;;;;;;16.95;10.00;;;;;;;;;;5016835;28;20048;-70
2022/11/06 09:01:32;;;;;;;16.92;9.95;;;;;;;;;;5019543;28;20069;-69
2022/11/06 09:03:57;;;;;;;14.35;9.18;;;;;;;;;;5017278;28;20967;-69
2022/11/06 09:06:23;;;;;;;12.45;8.05;;;;;;;;;;5019303;28;20057;-70
2022/11/06 09:08:49;;;;;;;15.73;8.18;;;;;;;;;;5020308;28;20080;-70
2022/11/06 09:11:14;;;;;;;16.13;9.00;;;;;;;;;;5018646;28;20195;-69
2022/11/06 09:13:40;;;;;;;12.07;7.43;;;;;;;;;;5020711;28;20139;-69
2022/11/06 09:16:06;;;;;;;16.45;9.32;;;;;;;;;;5021004;28;20041;-69
2022/11/06 09:18:31;;;;;;;19.88;9.82;;;;;;;;;;5018635;28;20056;-70
2022/11/06 09:20:57;;;;;;;18.55;9.95;;;;;;;;;;5020550;28;20049;-69
2022/11/06 09:23:23;;;;;;;15.00;9.38;;;;;;;;;;5019810;28;20082;-67
2022/11/06 09:25:49;;;;;;;18.63;11.10;;;;;;;;;;5020821;28;20607;-68
2022/11/06 09:28:15;;;;;;;15.65;9.57;;;;;;;;;;5019243;28;20127;-67
2022/11/06 09:30:40;;;;;;;17.23;9.25;;;;;;;;;;5019215;28;20108;-67
2022/11/06 09:33:05;;;;;;;18.75;10.02;;;;;;;;;;5020450;28;20456;-68
2022/11/06 09:35:33;;;;;;;21.40;11.00;;;;;;;;;;5020479;28;20057;-67
2022/11/06 09:38:00;;;;;;;15.10;8.70;;;;;;;;;;5021200;28;20064;-69
2022/11/06 09:40:37;;;;;;;13.80;8.50;;;;;;;;;;5022212;28;20037;-69
2022/11/06 09:43:15;;;;;;;12.82;7.80;;;;;;;;;;5023751;28;20045;-69
2022/11/06 09:45:41;;;;;;;10.25;7.32;;;;;;;;;;5020529;28;20103;-69
2022/11/06 09:48:09;;;;;;;14.57;9.20;;;;;;;;;;5020249;28;20049;-69
2022/11/06 09:50:40;;;;;;;13.40;7.57;;;;;;;;;;5014827;28;20131;-68
2022/11/06 09:53:39;;;;;;;10.77;7.03;;;;;;;;;;5019278;28;20049;-69
2022/11/06 09:56:09;;;;;;;9.68;6.30;;;;;;;;;;5014008;28;20045;-69
2022/11/06 09:58:37;;;;;;;7.95;5.63;;;;;;;;;;5019902;28;20045;-68
2022/11/06 10:01:18;;;;;;;10.00;6.82;;;;;;;;;;5017986;28;20045;-67
2022/11/06 10:03:56;;;;;;;9.98;7.30;;;;;;;;;;5013543;28;20045;-68
2022/11/06 10:06:23;;;;;;;10.50;6.05;;;;;;;;;;5020795;28;20042;-69
2022/11/06 10:08:50;;;;;;;9.80;6.68;;;;;;;;;;5022147;28;20098;-69
2022/11/06 10:11:16;;;;;;;8.98;6.18;;;;;;;;;;5018979;28;20049;-69
2022/11/06 10:14:07;;;;;;;5.60;4.63;;;;;;;;;;5020854;28;20053;-67
2022/11/06 10:16:40;;;;;;;6.00;4.70;;;;;;;;;;5016752;28;20444;-68
2022/11/06 10:19:33;;;;;;;4.45;4.00;;;;;;;;;;5018797;28;20045;-69
2022/11/06 10:22:10;;;;;;;4.65;4.20;;;;;;;;;;5017487;28;20111;-70
2022/11/06 10:24:45;;;;;;;5.43;3.90;;;;;;;;;;5013542;28;20461;-70
2022/11/06 10:27:22;;;;;;;4.43;3.95;;;;;;;;;;5021365;28;20132;-69
2022/11/06 10:29:48;;;;;;;5.10;3.92;;;;;;;;;;5021247;28;20081;-69
2022/11/06 10:32:33;;;;;;;4.28;3.42;;;;;;;;;;5021210;28;20411;-70
2022/11/06 10:35:32;;;;;;;4.00;3.60;;;;;;;;;;5003094;28;20076;-70
2022/11/06 10:38:04;;;;;;;4.22;3.70;;;;;;;;;;5021575;28;20140;-68
2022/11/06 10:40:32;;;;;;;3.33;2.80;;;;;;;;;;5035491;28;20056;-68
2022/11/06 10:43:23;;;;;;;3.50;3.17;;;;;;;;;;5021386;28;20073;-67
2022/11/06 10:45:56;;;;;;;3.95;3.30;;;;;;;;;;5019749;28;20057;-68
2022/11/06 10:48:28;;;;;;;3.55;3.05;;;;;;;;;;5020814;28;20515;-67
2022/11/06 10:51:02;;;;;;;3.05;2.75;;;;;;;;;;5007699;28;20513;-68
2022/11/06 10:53:37;;;;;;;2.63;2.42;;;;;;;;;;5020526;28;20500;-68
2022/11/06 10:56:12;;;;;;;3.15;2.85;;;;;;;;;;5020600;28;20037;-69
2022/11/06 10:58:37;;;;;;;2.58;2.38;;;;;;;;;;5020407;28;20057;-68
2022/11/06 11:01:05;;;;;;;3.15;2.60;;;;;;;;;;5017897;28;20045;-68
2022/11/06 11:03:34;;;;;;;3.70;3.33;;;;;;;;;;5020711;28;20125;-68
2022/11/06 11:06:02;;;;;;;4.50;3.70;;;;;;;;;;5017235;28;20059;-68
2022/11/06 11:08:38;;;;;;;2.88;2.67;;;;;;;;;;5016595;28;20052;-68
2022/11/06 11:11:12;;;;;;;4.20;2.70;;;;;;;;;;5018988;28;20041;-68
2022/11/06 11:13:43;;;;;;;2.60;2.40;;;;;;;;;;5020791;28;20417;-68
2022/11/06 11:16:30;;;;;;;3.00;2.75;;;;;;;;;;5022567;28;20115;-68
2022/11/06 11:19:14;;;;;;;2.55;2.35;;;;;;;;;;5018861;28;20544;-69
2022/11/06 11:21:55;;;;;;;2.72;2.53;;;;;;;;;;5020359;28;20072;-68
2022/11/06 11:24:21;;;;;;;3.45;3.15;;;;;;;;;;5020472;28;20053;-68
2022/11/06 11:26:49;;;;;;;2.83;2.63;;;;;;;;;;5022808;28;20429;-68
2022/11/06 11:29:33;;;;;;;3.03;2.72;;;;;;;;;;5021016;28;20507;-68
2022/11/06 11:32:03;;;;;;;2.47;2.28;;;;;;;;;;5021442;28;20064;-68
2022/11/06 11:34:31;;;;;;;2.83;2.50;;;;;;;;;;5022024;28;20554;-68
2022/11/06 11:36:58;;;;;;;3.30;3.00;;;;;;;;;;5021267;28;20049;-68
2022/11/06 11:39:33;;;;;;;3.00;2.70;;;;;;;;;;5021988;28;20576;-68
2022/11/06 11:42:23;;;;;;;2.60;2.40;;;;;;;;;;5022787;28;20128;-68
2022/11/06 11:45:07;;;;;;;3.00;2.80;;;;;;;;;;5023294;28;20064;-68
2022/11/06 11:47:32;;;;;;;3.10;2.42;;;;;;;;;;5027563;28;20037;-68
2022/11/06 11:50:15;;;;;;;3.60;2.50;;;;;;;;;;5027155;28;20562;-68
2022/11/06 11:52:46;;;;;;;5.13;2.25;;;;;;;;;;5021950;28;20053;-69
2022/11/06 11:55:21;;;;;;;2.33;2.13;;;;;;;;;;5021973;28;20196;-69
2022/11/06 11:57:53;;;;;;;2.35;2.15;;;;;;;;;;5021963;28;20057;-68
2022/11/06 12:00:21;;;;;;;3.33;2.45;;;;;;;;;;5021143;28;20074;-69
2022/11/06 12:02:51;;;;;;;2.72;2.33;;;;;;;;;;5021447;28;20064;-69
2022/11/06 12:05:22;;;;;;;2.45;2.25;;;;;;;;;;5020395;28;20053;-69
2022/11/06 12:07:56;;;;;;;2.22;2.03;;;;;;;;;;5020723;28;20211;-69
2022/11/06 12:10:38;;;;;;;2.60;2.40;;;;;;;;;;5020480;28;20057;-69
2022/11/06 12:13:14;;;;;;;2.13;1.92;;;;;;;;;;5019832;28;20559;-68
2022/11/06 12:15:43;;;;;;;4.68;2.00;;;;;;;;;;5019554;28;20893;-69
2022/11/06 12:18:15;;;;;;;1.73;1.63;;;;;;;;;;5019576;28;20081;-69
2022/11/06 12:20:43;;;;;;;;;;;;;;;;;;5021845;28;20448;-69
2022/11/06 12:23:19;;;;;;;2.20;2.00;;;;;;;;;;5021151;28;20396;-68
2022/11/06 12:25:57;;;;;;;2.20;2.00;;;;;;;;;;5021595;28;20037;-68
2022/11/06 12:28:24;;;;;;;2.03;1.80;;;;;;;;;;5021280;28;20067;-69
2022/11/06 12:30:59;;;;;;;2.90;1.85;;;;;;;;;;5021505;28;20379;-68
2022/11/06 12:33:27;;;;;;;3.15;2.22;;;;;;;;;;5020935;28;20797;-68
2022/11/06 12:36:04;;;;;;;2.00;1.80;;;;;;;;;;5021473;28;20049;-68
2022/11/06 12:38:53;;;;;;;3.05;2.75;;;;;;;;;;5021239;28;20052;-69
2022/11/06 12:41:28;;;;;;;3.00;2.80;;;;;;;;;;5022019;28;20118;-69
2022/11/06 12:43:55;;;;;;;4.00;2.63;;;;;;;;;;5022301;28;20051;-69
2022/11/06 12:46:27;;;;;;;2.90;2.60;;;;;;;;;;5018736;28;20041;-68
2022/11/06 12:49:27;;;;;;;4.85;2.70;;;;;;;;;;5021100;28;20933;-68
2022/11/06 12:52:04;;;;;;;2.60;2.40;;;;;;;;;;5021656;28;20052;-69
2022/11/06 12:54:40;;;;;;;2.97;2.53;;;;;;;;;;5020703;28;20049;-69
2022/11/06 12:57:27;;;;;;;3.03;2.75;;;;;;;;;;5020927;28;20410;-68
2022/11/06 13:00:15;;;;;;;2.70;2.50;;;;;;;;;;5018387;28;20461;-70
2022/11/06 13:03:07;;;;;;;2.70;2.50;;;;;;;;;;5020532;28;20149;-70
2022/11/06 13:05:52;;;;;;;3.42;3.13;;;;;;;;;;5019784;28;20561;-70
2022/11/06 13:08:29;;;;;;;3.22;3.00;;;;;;;;;;5017462;28;20498;-70
2022/11/06 13:11:14;;;;;;;3.13;2.90;;;;;;;;;;5018308;28;20045;-69
2022/11/06 13:14:18;;;;;;;3.45;2.88;;;;;;;;;;5022122;28;20734;-69
2022/11/06 13:17:05;;;;;;;2.88;2.67;;;;;;;;;;4988468;28;20050;-69
2022/11/06 13:19:48;;;;;;;2.92;2.63;;;;;;;;;;5021209;28;20050;-70
2022/11/06 13:22:33;;;;;;;4.35;3.25;;;;;;;;;;5022599;28;20060;-69
2022/11/06 13:25:05;;;;;;;3.33;2.95;;;;;;;;;;5006935;28;20422;-70
2022/11/06 13:27:50;;;;;;;3.10;2.80;;;;;;;;;;5019353;28;20045;-70
2022/11/06 13:30:17;;;;;;;3.47;2.83;;;;;;;;;;5001904;28;20071;-69
2022/11/06 13:33:09;;;;;;;4.03;2.72;;;;;;;;;;5002263;28;20060;-68
2022/11/06 13:35:37;;;;;;;4.63;2.60;;;;;;;;;;5020461;28;20040;-69
2022/11/06 13:38:07;;;;;;;2.72;2.53;;;;;;;;;;5019797;28;20057;-69
2022/11/06 13:40:36;;;;;;;3.25;2.95;;;;;;;;;;5019209;28;20045;-69
2022/11/06 13:43:13;;;;;;;4.22;2.92;;;;;;;;;;5020835;28;20391;-69
2022/11/06 13:45:50;;;;;;;2.70;2.50;;;;;;;;;;5020095;28;20524;-69
2022/11/06 13:48:22;;;;;;;3.55;3.25;;;;;;;;;;5018191;28;20045;-69
2022/11/06 13:50:59;;;;;;;3.15;2.50;;;;;;;;;;5018889;28;20041;-68
2022/11/06 13:53:33;;;;;;;2.78;2.58;;;;;;;;;;5018375;28;20068;-68
2022/11/06 13:56:37;;;;;;;2.70;2.50;;;;;;;;;;5020062;28;20114;-68
2022/11/06 13:59:22;;;;;;;3.72;2.70;;;;;;;;;;5015355;28;20124;-68
2022/11/06 14:01:56;;;;;;;5.88;3.10;;;;;;;;;;5018336;28;20156;-70
2022/11/06 14:04:31;;;;;;;3.70;3.08;;;;;;;;;;5019445;28;20054;-70
2022/11/06 14:07:01;;;;;;;3.08;2.50;;;;;;;;;;5020454;28;20091;-69
2022/11/06 14:09:30;;;;;;;3.05;2.75;;;;;;;;;;5019021;28;20106;-69
2022/11/06 14:11:59;;;;;;;2.75;2.47;;;;;;;;;;5017910;28;20421;-68
2022/11/06 14:14:29;;;;;;;3.45;2.60;;;;;;;;;;5016497;28;20049;-70
2022/11/06 14:17:11;;;;;;;3.05;2.50;;;;;;;;;;5032965;28;20076;-70
2022/11/06 14:19:38;;;;;;;2.85;2.60;;;;;;;;;;5016593;28;20045;-70
2022/11/06 14:22:07;;;;;;;3.42;2.80;;;;;;;;;;5018209;28;20049;-70
2022/11/06 14:24:34;;;;;;;3.55;3.00;;;;;;;;;;5015416;28;20071;-69
2022/11/06 14:27:12;;;;;;;3.35;3.05;;;;;;;;;;5016959;28;20647;-69
2022/11/06 14:29:37;;;;;;;3.05;2.75;;;;;;;;;;5016839;28;20045;-69
2022/11/06 14:32:18;;;;;;;4.97;2.80;;;;;;;;;;5016798;28;20057;-69
2022/11/06 14:34:43;;;;;;;3.05;2.45;;;;;;;;;;5016079;28;20107;-70
2022/11/06 14:37:18;;;;;;;3.20;2.90;;;;;;;;;;5016963;28;20049;-70
2022/11/06 14:39:55;;;;;;;2.65;2.38;;;;;;;;;;5016846;28;20099;-70
2022/11/06 14:42:32;;;;;;;2.92;2.60;;;;;;;;;;5016508;28;20049;-70
2022/11/06 14:44:59;;;;;;;2.78;2.50;;;;;;;;;;5013788;28;20057;-70
2022/11/06 14:47:38;;;;;;;3.33;2.45;;;;;;;;;;5015884;28;20072;-69
2022/11/06 14:50:08;;;;;;;3.20;2.90;;;;;;;;;;5016022;28;20436;-69
2022/11/06 14:52:45;;;;;;;3.00;2.70;;;;;;;;;;5018067;28;20034;-69
2022/11/06 14:55:41;;;;;;;3.58;2.60;;;;;;;;;;5019770;28;20106;-69
2022/11/06 14:58:26;;;;;;;5.13;2.70;;;;;;;;;;5018337;28;20140;-68
2022/11/06 15:01:01;;;;;;;7.05;4.38;;;;;;;;;;5015680;28;20050;-69
2022/11/06 15:03:41;;;;;;;4.35;3.17;;;;;;;;;;5017510;28;20064;-69
2022/11/06 15:06:16;;;;;;;3.03;2.72;;;;;;;;;;5017803;28;20156;-68
2022/11/06 15:08:44;;;;;;;2.60;2.40;;;;;;;;;;5018196;28;20420;-68